Time;durP1;ratioP1;P1;durP2;ratioP2;P2;SDS_P1;SDS_P2;PMS_P1;PMS_P2;Temp;Humidity;BMP_temperature;BMP_pressure;BME280_temperature;BME280_humidity;BME280_pressure;Samples;Min_cycle;Max_cycle;Signal;HPM_P1;HPM_P2
2021/11/22 00:01:42;;;;;;;20.25;8.32;;;;;;;;;;4983702;28;20084;-67
2021/11/22 00:04:09;;;;;;;17.55;8.88;;;;;;;;;;4990273;28;20014;-67
2021/11/22 00:06:35;;;;;;;14.35;8.15;;;;;;;;;;4985729;28;20023;-67
2021/11/22 00:09:00;;;;;;;13.50;7.15;;;;;;;;;;4984847;28;20414;-66
2021/11/22 00:11:25;;;;;;;16.60;8.13;;;;;;;;;;4974458;28;20525;-67
2021/11/22 00:13:50;;;;;;;15.95;7.43;;;;;;;;;;4978826;28;20027;-67
2021/11/22 00:16:15;;;;;;;16.83;7.40;;;;;;;;;;4974734;28;20023;-67
2021/11/22 00:18:43;;;;;;;17.85;7.65;;;;;;;;;;4978231;28;20054;-67
2021/11/22 00:21:09;;;;;;;18.27;8.43;;;;;;;;;;4981713;28;20092;-67
2021/11/22 00:23:34;;;;;;;19.90;7.38;;;;;;;;;;4981377;28;20467;-66
2021/11/22 00:25:59;;;;;;;19.40;8.15;;;;;;;;;;4979352;28;20022;-66
2021/11/22 00:28:24;;;;;;;16.05;7.90;;;;;;;;;;4981268;28;20019;-67
2021/11/22 00:30:49;;;;;;;20.33;7.88;;;;;;;;;;4970861;28;20023;-67
2021/11/22 00:33:15;;;;;;;17.92;7.43;;;;;;;;;;4970027;28;20033;-67
2021/11/22 00:35:42;;;;;;;20.33;7.78;;;;;;;;;;4978932;28;20030;-67
2021/11/22 00:38:07;;;;;;;14.45;7.88;;;;;;;;;;4976947;28;20383;-67
2021/11/22 00:40:34;;;;;;;19.92;7.53;;;;;;;;;;4972008;28;20023;-67
2021/11/22 00:42:59;;;;;;;20.65;8.00;;;;;;;;;;4973429;28;20026;-66
2021/11/22 00:45:27;;;;;;;13.13;6.82;;;;;;;;;;4974819;28;20027;-67
2021/11/22 00:47:52;;;;;;;16.50;8.30;;;;;;;;;;4988591;28;20037;-67
2021/11/22 00:50:17;;;;;;;19.20;8.43;;;;;;;;;;4978281;28;20022;-66
2021/11/22 00:52:42;;;;;;;19.25;7.93;;;;;;;;;;4975232;28;20151;-67
2021/11/22 00:55:08;;;;;;;21.23;8.85;;;;;;;;;;4981636;28;20019;-66
2021/11/22 00:57:33;;;;;;;14.52;7.80;;;;;;;;;;4990039;28;20368;-67
2021/11/22 00:59:59;;;;;;;18.83;8.80;;;;;;;;;;4975925;28;20050;-67
2021/11/22 01:02:24;;;;;;;27.83;8.60;;;;;;;;;;4974262;28;20034;-67
2021/11/22 01:04:49;;;;;;;15.15;7.00;;;;;;;;;;4980225;28;20069;-67
2021/11/22 01:07:14;;;;;;;19.17;8.07;;;;;;;;;;4993780;28;20065;-67
2021/11/22 01:09:40;;;;;;;23.58;8.15;;;;;;;;;;4984007;28;20030;-67
2021/11/22 01:12:05;;;;;;;26.08;9.20;;;;;;;;;;4993166;28;20029;-67
2021/11/22 01:14:31;;;;;;;20.88;8.13;;;;;;;;;;4990087;28;20026;-67
2021/11/22 01:16:56;;;;;;;21.10;8.70;;;;;;;;;;4989031;28;20026;-67
2021/11/22 01:19:21;;;;;;;23.40;9.05;;;;;;;;;;4981127;28;20025;-67
2021/11/22 01:21:46;;;;;;;23.02;8.27;;;;;;;;;;4990751;28;20467;-67
2021/11/22 01:24:12;;;;;;;24.58;8.82;;;;;;;;;;4983636;28;20387;-67
2021/11/22 01:26:37;;;;;;;25.27;9.05;;;;;;;;;;4984367;28;20105;-67
2021/11/22 01:29:03;;;;;;;25.58;9.40;;;;;;;;;;4993393;28;20429;-67
2021/11/22 01:31:28;;;;;;;20.63;9.05;;;;;;;;;;4992172;28;20022;-66
2021/11/22 01:33:53;;;;;;;28.15;10.20;;;;;;;;;;4980750;28;20034;-67
2021/11/22 01:36:18;;;;;;;24.60;9.48;;;;;;;;;;4974964;28;20022;-67
2021/11/22 01:38:44;;;;;;;19.60;8.90;;;;;;;;;;4974227;28;20019;-67
2021/11/22 01:41:09;;;;;;;25.30;9.18;;;;;;;;;;4986262;28;20022;-67
2021/11/22 01:43:34;;;;;;;17.48;8.63;;;;;;;;;;4981222;28;20097;-67
2021/11/22 01:45:59;;;;;;;18.20;8.98;;;;;;;;;;4981523;28;20030;-68
2021/11/22 01:48:25;;;;;;;19.45;9.48;;;;;;;;;;4993752;28;20027;-66
2021/11/22 01:50:52;;;;;;;25.50;8.38;;;;;;;;;;4989908;28;20053;-67
2021/11/22 01:53:18;;;;;;;28.02;10.45;;;;;;;;;;4981207;28;20031;-68
2021/11/22 01:55:43;;;;;;;24.58;9.15;;;;;;;;;;4986245;28;20092;-67
2021/11/22 01:58:09;;;;;;;27.23;9.93;;;;;;;;;;4973521;28;20030;-66
2021/11/22 02:00:37;;;;;;;20.90;8.93;;;;;;;;;;4974625;28;20411;-68
2021/11/22 02:03:03;;;;;;;27.20;9.38;;;;;;;;;;4974392;28;20026;-68
2021/11/22 02:05:28;;;;;;;30.90;9.75;;;;;;;;;;4984919;28;20033;-68
2021/11/22 02:07:54;;;;;;;33.03;9.32;;;;;;;;;;4984382;28;20022;-67
2021/11/22 02:10:20;;;;;;;28.77;9.00;;;;;;;;;;4974406;28;20031;-67
2021/11/22 02:12:45;;;;;;;24.48;10.02;;;;;;;;;;4973759;28;20054;-67
2021/11/22 02:15:12;;;;;;;24.92;8.73;;;;;;;;;;4986893;28;20014;-67
2021/11/22 02:17:39;;;;;;;28.98;9.98;;;;;;;;;;4987044;28;20022;-67
2021/11/22 02:20:06;;;;;;;24.50;9.43;;;;;;;;;;4988835;28;20026;-67
2021/11/22 02:22:32;;;;;;;30.92;9.68;;;;;;;;;;4978821;28;20018;-68
2021/11/22 02:24:57;;;;;;;25.30;10.02;;;;;;;;;;4973960;28;20030;-67
2021/11/22 02:27:23;;;;;;;29.40;10.85;;;;;;;;;;4977924;28;20109;-67
2021/11/22 02:29:48;;;;;;;31.73;10.30;;;;;;;;;;4991185;28;20118;-66
2021/11/22 02:32:14;;;;;;;29.17;9.95;;;;;;;;;;4992591;28;20037;-68
2021/11/22 02:34:39;;;;;;;26.90;9.75;;;;;;;;;;4982742;28;20069;-67
2021/11/22 02:37:05;;;;;;;35.63;9.98;;;;;;;;;;4976354;28;20022;-67
2021/11/22 02:39:30;;;;;;;28.45;10.85;;;;;;;;;;4986223;28;20027;-66
2021/11/22 02:41:55;;;;;;;35.50;11.30;;;;;;;;;;4973456;28;20019;-67
2021/11/22 02:44:21;;;;;;;31.77;12.63;;;;;;;;;;4972708;28;20101;-66
2021/11/22 02:46:46;;;;;;;31.27;11.30;;;;;;;;;;4973094;28;20019;-67
2021/11/22 02:49:12;;;;;;;34.95;12.43;;;;;;;;;;4987412;28;20052;-67
2021/11/22 02:51:39;;;;;;;30.92;13.63;;;;;;;;;;4982854;28;20410;-66
2021/11/22 02:54:04;;;;;;;40.95;14.90;;;;;;;;;;4986686;28;20031;-68
2021/11/22 02:56:30;;;;;;;53.55;17.17;;;;;;;;;;4977518;28;20027;-66
2021/11/22 02:58:56;;;;;;;49.63;18.33;;;;;;;;;;4973985;28;20108;-66
2021/11/22 03:01:21;;;;;;;64.50;20.25;;;;;;;;;;4973962;28;20054;-68
2021/11/22 03:03:46;;;;;;;62.30;21.33;;;;;;;;;;4980813;28;20034;-67
2021/11/22 03:06:13;;;;;;;80.00;24.70;;;;;;;;;;4983123;28;20031;-66
2021/11/22 03:08:39;;;;;;;71.85;24.48;;;;;;;;;;4974952;28;20170;-66
2021/11/22 03:11:05;;;;;;;73.60;24.85;;;;;;;;;;4986112;28;20073;-66
2021/11/22 03:13:30;;;;;;;72.32;24.92;;;;;;;;;;4988744;28;20070;-67
2021/11/22 03:15:56;;;;;;;66.75;24.58;;;;;;;;;;4988018;28;20055;-67
2021/11/22 03:18:21;;;;;;;74.85;28.30;;;;;;;;;;4985586;28;20129;-67
2021/11/22 03:20:46;;;;;;;71.22;28.20;;;;;;;;;;4977226;28;20021;-67
2021/11/22 03:23:12;;;;;;;82.15;28.60;;;;;;;;;;4978308;28;20170;-67
2021/11/22 03:25:37;;;;;;;77.72;28.40;;;;;;;;;;4973439;28;20011;-67
2021/11/22 03:28:02;;;;;;;90.82;30.55;;;;;;;;;;4991256;28;20026;-67
2021/11/22 03:30:27;;;;;;;73.10;27.60;;;;;;;;;;4975255;28;20026;-68
2021/11/22 03:32:52;;;;;;;79.00;31.13;;;;;;;;;;4973984;28;20049;-67
2021/11/22 03:35:18;;;;;;;76.18;30.05;;;;;;;;;;4977700;28;20050;-67
2021/11/22 03:37:43;;;;;;;74.32;27.10;;;;;;;;;;4989825;28;20045;-68
2021/11/22 03:40:09;;;;;;;72.50;28.20;;;;;;;;;;4987048;28;20015;-68
2021/11/22 03:42:52;;;;;;;83.38;28.55;;;;;;;;;;4972461;28;20127;-67
2021/11/22 03:45:17;;;;;;;64.28;26.55;;;;;;;;;;4982463;28;20038;-66
2021/11/22 03:47:42;;;;;;;73.97;26.88;;;;;;;;;;4975936;28;20027;-67
2021/11/22 03:50:08;;;;;;;68.00;25.45;;;;;;;;;;4978846;28;20023;-67
2021/11/22 03:52:33;;;;;;;55.88;25.45;;;;;;;;;;4980876;28;20097;-67
2021/11/22 03:54:58;;;;;;;55.40;23.33;;;;;;;;;;4983614;28;20037;-67
2021/11/22 03:57:26;;;;;;;64.68;25.48;;;;;;;;;;4974269;28;20519;-67
2021/11/22 03:59:52;;;;;;;52.45;23.02;;;;;;;;;;4981827;28;20072;-68
2021/11/22 04:02:17;;;;;;;62.20;24.23;;;;;;;;;;4970785;28;20434;-68
2021/11/22 04:04:42;;;;;;;62.00;22.60;;;;;;;;;;4971803;28;20035;-68
2021/11/22 04:07:07;;;;;;;52.28;21.73;;;;;;;;;;4971585;28;20555;-66
2021/11/22 04:09:35;;;;;;;60.95;23.92;;;;;;;;;;4971649;28;20027;-67
2021/11/22 04:12:00;;;;;;;49.85;21.63;;;;;;;;;;4982700;28;20105;-67
2021/11/22 04:14:25;;;;;;;62.30;22.30;;;;;;;;;;4976064;28;20070;-67
2021/11/22 04:16:50;;;;;;;54.70;21.17;;;;;;;;;;4980907;28;20019;-67
2021/11/22 04:19:16;;;;;;;50.50;21.08;;;;;;;;;;4990464;28;20265;-67
2021/11/22 04:21:41;;;;;;;55.58;21.70;;;;;;;;;;4988107;28;20137;-68
2021/11/22 04:24:06;;;;;;;49.33;20.75;;;;;;;;;;4971219;28;20094;-67
2021/11/22 04:26:32;;;;;;;48.90;18.85;;;;;;;;;;4971480;28;20038;-68
2021/11/22 04:28:58;;;;;;;44.83;21.10;;;;;;;;;;4972675;28;20114;-68
2021/11/22 04:31:23;;;;;;;42.03;21.45;;;;;;;;;;4971107;28;20027;-68
2021/11/22 04:33:48;;;;;;;47.42;19.25;;;;;;;;;;4971021;28;20475;-68
2021/11/22 04:36:14;;;;;;;43.65;20.50;;;;;;;;;;4970819;28;20727;-68
2021/11/22 04:38:39;;;;;;;31.30;16.48;;;;;;;;;;4969687;28;20025;-68
2021/11/22 04:41:04;;;;;;;35.28;16.88;;;;;;;;;;4969996;28;20023;-68
2021/11/22 04:43:30;;;;;;;34.28;16.35;;;;;;;;;;4973477;28;20471;-67
2021/11/22 04:45:55;;;;;;;40.72;16.45;;;;;;;;;;4970844;28;20031;-66
2021/11/22 04:48:20;;;;;;;34.15;15.98;;;;;;;;;;4970898;28;20105;-68
2021/11/22 04:50:45;;;;;;;29.20;14.43;;;;;;;;;;4970419;28;20022;-67
2021/11/22 04:53:10;;;;;;;31.45;15.15;;;;;;;;;;4970615;28;20248;-68
2021/11/22 04:55:36;;;;;;;40.83;15.60;;;;;;;;;;4970772;28;20051;-68
2021/11/22 04:58:01;;;;;;;29.83;13.93;;;;;;;;;;4970122;28;20019;-68
2021/11/22 05:00:27;;;;;;;35.65;14.55;;;;;;;;;;4970639;28;20030;-68
2021/11/22 05:02:52;;;;;;;30.85;14.93;;;;;;;;;;4970876;28;20025;-68
2021/11/22 05:05:18;;;;;;;33.95;14.63;;;;;;;;;;4970768;28;20034;-67
2021/11/22 05:07:45;;;;;;;32.42;14.63;;;;;;;;;;4970566;28;20033;-68
2021/11/22 05:10:10;;;;;;;29.35;15.38;;;;;;;;;;4970190;28;20383;-67
2021/11/22 05:12:36;;;;;;;28.33;14.10;;;;;;;;;;4970155;28;20027;-68
2021/11/22 05:15:01;;;;;;;31.98;15.35;;;;;;;;;;4975282;28;20114;-68
2021/11/22 05:17:26;;;;;;;29.70;14.52;;;;;;;;;;4971095;28;20345;-68
2021/11/22 05:19:52;;;;;;;30.75;14.15;;;;;;;;;;4970453;28;20106;-68
2021/11/22 05:22:21;;;;;;;28.05;12.95;;;;;;;;;;4972897;28;20038;-67
2021/11/22 05:24:49;;;;;;;35.88;13.43;;;;;;;;;;4987309;28;20018;-68
2021/11/22 05:27:21;;;;;;;33.63;13.77;;;;;;;;;;4988434;28;20034;-68
2021/11/22 05:29:47;;;;;;;26.83;13.38;;;;;;;;;;4983105;28;20495;-67
2021/11/22 05:32:16;;;;;;;29.70;12.55;;;;;;;;;;4987934;28;20052;-68
2021/11/22 05:34:42;;;;;;;24.92;14.02;;;;;;;;;;4992045;28;20018;-69
2021/11/22 05:37:07;;;;;;;26.55;13.80;;;;;;;;;;4981127;28;20045;-68
2021/11/22 05:39:32;;;;;;;24.77;12.63;;;;;;;;;;4985848;28;20100;-68
2021/11/22 05:41:58;;;;;;;24.42;10.90;;;;;;;;;;4981438;28;20046;-68
2021/11/22 05:44:23;;;;;;;25.40;11.33;;;;;;;;;;4977725;28;20106;-68
2021/11/22 05:46:50;;;;;;;20.77;11.18;;;;;;;;;;4983870;28;20269;-68
2021/11/22 05:49:15;;;;;;;24.25;10.80;;;;;;;;;;4979156;28;20077;-67
2021/11/22 05:51:43;;;;;;;25.00;11.00;;;;;;;;;;4985084;28;20041;-68
2021/11/22 05:54:08;;;;;;;21.00;11.65;;;;;;;;;;4984517;28;20069;-68
2021/11/22 05:56:34;;;;;;;24.67;11.45;;;;;;;;;;4974495;28;20493;-68
2021/11/22 05:58:59;;;;;;;19.67;10.48;;;;;;;;;;4991028;28;20169;-68
2021/11/22 06:01:24;;;;;;;23.05;10.80;;;;;;;;;;4980782;28;20038;-68
2021/11/22 06:03:49;;;;;;;24.27;10.27;;;;;;;;;;4981081;28;20491;-68
2021/11/22 06:06:14;;;;;;;18.95;10.50;;;;;;;;;;4977429;28;20270;-67
2021/11/22 06:08:40;;;;;;;21.67;10.45;;;;;;;;;;4974199;28;20033;-68
2021/11/22 06:11:05;;;;;;;26.70;10.82;;;;;;;;;;4988010;28;20487;-68
2021/11/22 06:13:30;;;;;;;20.20;9.68;;;;;;;;;;4990300;28;20046;-68
2021/11/22 06:15:55;;;;;;;17.63;9.40;;;;;;;;;;4974465;28;20101;-68
2021/11/22 06:18:21;;;;;;;19.80;10.30;;;;;;;;;;4972855;28;20027;-67
2021/11/22 06:20:46;;;;;;;19.05;8.75;;;;;;;;;;4973540;28;20202;-68
2021/11/22 06:23:11;;;;;;;14.13;8.75;;;;;;;;;;4984676;28;20028;-67
2021/11/22 06:25:37;;;;;;;18.02;8.48;;;;;;;;;;4971671;28;20046;-67
2021/11/22 06:28:02;;;;;;;16.20;8.50;;;;;;;;;;4970887;28;20030;-66
2021/11/22 06:30:28;;;;;;;22.40;9.32;;;;;;;;;;4977061;28;20030;-66
2021/11/22 06:32:54;;;;;;;19.92;8.10;;;;;;;;;;4971031;28;20110;-67
2021/11/22 06:35:20;;;;;;;18.88;9.40;;;;;;;;;;4970491;28;20271;-67
2021/11/22 06:37:45;;;;;;;14.18;7.97;;;;;;;;;;4970688;28;20073;-66
2021/11/22 06:40:11;;;;;;;18.08;8.05;;;;;;;;;;4970295;28;20022;-67
2021/11/22 06:42:36;;;;;;;13.38;7.93;;;;;;;;;;4973739;28;20373;-65
2021/11/22 06:45:03;;;;;;;13.88;7.80;;;;;;;;;;4968498;28;20116;-66
2021/11/22 06:47:28;;;;;;;19.33;7.55;;;;;;;;;;4970361;28;20039;-66
2021/11/22 06:49:53;;;;;;;14.55;7.30;;;;;;;;;;4970692;28;20053;-66
2021/11/22 06:52:21;;;;;;;16.33;7.75;;;;;;;;;;4970114;28;20026;-65
2021/11/22 06:54:46;;;;;;;17.10;7.70;;;;;;;;;;4968982;28;20392;-65
2021/11/22 06:57:14;;;;;;;16.15;7.75;;;;;;;;;;4972312;28;20034;-66
2021/11/22 06:59:39;;;;;;;16.60;8.05;;;;;;;;;;4972852;28;20026;-65
2021/11/22 07:02:06;;;;;;;18.50;8.38;;;;;;;;;;4974350;28;20022;-66
2021/11/22 07:04:31;;;;;;;15.13;8.20;;;;;;;;;;4983477;28;20803;-65
2021/11/22 07:06:56;;;;;;;16.85;8.35;;;;;;;;;;4984875;28;20022;-66
2021/11/22 07:09:23;;;;;;;12.05;7.47;;;;;;;;;;4977556;28;20029;-66
2021/11/22 07:11:48;;;;;;;15.15;8.55;;;;;;;;;;4987158;28;20023;-67
2021/11/22 07:14:13;;;;;;;13.60;7.72;;;;;;;;;;4979009;28;20026;-65
2021/11/22 07:16:39;;;;;;;16.42;7.32;;;;;;;;;;4980542;28;20471;-66
2021/11/22 07:19:04;;;;;;;17.63;8.63;;;;;;;;;;4991607;28;20018;-65
2021/11/22 07:21:29;;;;;;;19.55;8.82;;;;;;;;;;4977428;28;20054;-66
2021/11/22 07:23:55;;;;;;;13.15;7.63;;;;;;;;;;4971523;28;20023;-68
2021/11/22 07:26:20;;;;;;;17.02;8.90;;;;;;;;;;4972937;28;20026;-66
2021/11/22 07:28:45;;;;;;;14.65;8.00;;;;;;;;;;4969542;28;20464;-65
2021/11/22 07:31:11;;;;;;;18.15;8.95;;;;;;;;;;4976949;28;20014;-68
2021/11/22 07:33:36;;;;;;;14.95;9.05;;;;;;;;;;4964367;28;20022;-67
2021/11/22 07:36:01;;;;;;;16.25;8.57;;;;;;;;;;4968104;28;20550;-67
2021/11/22 07:38:26;;;;;;;15.95;9.20;;;;;;;;;;4972268;28;20033;-67
2021/11/22 07:40:52;;;;;;;14.93;8.63;;;;;;;;;;4970931;28;20434;-67
2021/11/22 07:43:17;;;;;;;18.23;8.55;;;;;;;;;;4971559;28;20025;-68
2021/11/22 07:45:43;;;;;;;16.83;8.35;;;;;;;;;;4972944;28;20487;-67
2021/11/22 07:48:09;;;;;;;15.43;8.27;;;;;;;;;;4968731;28;20029;-66
2021/11/22 07:50:34;;;;;;;12.50;7.43;;;;;;;;;;4970621;28;20106;-67
2021/11/22 07:52:59;;;;;;;13.60;7.80;;;;;;;;;;4971444;28;20471;-67
2021/11/22 07:55:25;;;;;;;10.23;6.78;;;;;;;;;;4970711;28;20042;-67
2021/11/22 07:57:51;;;;;;;16.27;7.97;;;;;;;;;;4969605;28;20019;-67
2021/11/22 08:00:17;;;;;;;15.40;7.90;;;;;;;;;;4971276;28;20431;-66
2021/11/22 08:02:42;;;;;;;13.13;8.07;;;;;;;;;;4971467;28;20023;-66
2021/11/22 08:05:08;;;;;;;14.60;7.22;;;;;;;;;;4968126;28;20078;-66
2021/11/22 08:07:36;;;;;;;11.68;7.07;;;;;;;;;;4970619;28;20403;-67
2021/11/22 08:10:05;;;;;;;32.00;7.93;;;;;;;;;;4969881;28;20279;-68
2021/11/22 08:12:33;;;;;;;14.43;6.13;;;;;;;;;;4971378;28;20102;-67
2021/11/22 08:15:02;;;;;;;7.78;5.47;;;;;;;;;;4971449;28;20015;-67
2021/11/22 08:17:28;;;;;;;9.52;5.68;;;;;;;;;;4971161;28;20031;-67
2021/11/22 08:19:54;;;;;;;6.78;4.78;;;;;;;;;;4971708;28;20026;-66
2021/11/22 08:22:22;;;;;;;8.48;5.25;;;;;;;;;;4971322;28;20054;-68
2021/11/22 08:24:51;;;;;;;14.57;7.35;;;;;;;;;;4971319;28;20018;-67
2021/11/22 08:27:17;;;;;;;9.70;6.15;;;;;;;;;;4971577;28;20018;-67
2021/11/22 08:29:42;;;;;;;10.13;6.10;;;;;;;;;;4965945;28;20372;-67
2021/11/22 08:32:07;;;;;;;9.10;5.88;;;;;;;;;;4957509;28;20169;-67
2021/11/22 08:34:32;;;;;;;10.27;6.27;;;;;;;;;;4971393;28;20066;-67
2021/11/22 08:36:58;;;;;;;10.33;6.47;;;;;;;;;;4971337;28;20262;-67
2021/11/22 08:39:23;;;;;;;9.93;6.47;;;;;;;;;;4971198;28;20247;-69
2021/11/22 08:41:48;;;;;;;11.50;7.35;;;;;;;;;;4971282;28;20019;-67
2021/11/22 08:44:13;;;;;;;10.32;7.00;;;;;;;;;;4973164;28;20384;-68
2021/11/22 08:46:39;;;;;;;11.80;6.47;;;;;;;;;;4970384;28;20054;-67
2021/11/22 08:49:07;;;;;;;8.88;6.05;;;;;;;;;;4971104;28;20023;-67
2021/11/22 08:51:32;;;;;;;11.88;7.47;;;;;;;;;;4969537;28;20027;-67
2021/11/22 08:53:57;;;;;;;11.15;6.60;;;;;;;;;;4971290;28;20038;-69
2021/11/22 08:56:23;;;;;;;14.98;7.90;;;;;;;;;;4971184;28;20476;-66
2021/11/22 08:58:48;;;;;;;13.70;7.10;;;;;;;;;;4970919;28;20451;-68
2021/11/22 09:01:13;;;;;;;13.15;7.70;;;;;;;;;;4971117;28;20262;-66
2021/11/22 09:03:39;;;;;;;14.98;8.15;;;;;;;;;;4971165;28;20484;-66
2021/11/22 09:06:04;;;;;;;12.88;7.25;;;;;;;;;;4971394;28;20467;-69
2021/11/22 09:08:29;;;;;;;17.50;7.68;;;;;;;;;;4972444;28;20065;-66
2021/11/22 09:10:55;;;;;;;13.97;7.60;;;;;;;;;;4974957;28;20110;-67
2021/11/22 09:13:20;;;;;;;15.90;8.47;;;;;;;;;;4974859;28;20278;-67
2021/11/22 09:15:45;;;;;;;14.83;7.67;;;;;;;;;;4974606;28;20773;-67
2021/11/22 09:18:10;;;;;;;11.13;7.63;;;;;;;;;;4974542;28;20304;-69
2021/11/22 09:20:35;;;;;;;15.82;7.95;;;;;;;;;;4973818;28;20058;-67
2021/11/22 09:23:02;;;;;;;10.30;7.07;;;;;;;;;;4974754;28;20109;-67
2021/11/22 09:25:27;;;;;;;11.18;7.78;;;;;;;;;;4974411;28;20170;-67
2021/11/22 09:27:53;;;;;;;13.27;8.07;;;;;;;;;;4974493;28;20467;-69
2021/11/22 09:30:18;;;;;;;13.68;7.85;;;;;;;;;;4973951;28;20498;-68
2021/11/22 09:32:44;;;;;;;14.50;7.90;;;;;;;;;;4973038;28;20157;-67
2021/11/22 09:35:09;;;;;;;12.23;7.63;;;;;;;;;;4974192;28;20030;-67
2021/11/22 09:37:35;;;;;;;14.65;8.90;;;;;;;;;;4974062;28;20022;-66
2021/11/22 09:40:00;;;;;;;19.48;7.13;;;;;;;;;;4974149;28;20388;-67
2021/11/22 09:42:25;;;;;;;17.52;7.20;;;;;;;;;;4974064;28;20376;-68
2021/11/22 09:44:51;;;;;;;9.63;6.53;;;;;;;;;;4975764;28;20050;-66
2021/11/22 09:47:16;;;;;;;10.27;5.53;;;;;;;;;;4973852;28;20375;-66
2021/11/22 09:49:42;;;;;;;6.15;4.70;;;;;;;;;;4974464;28;20027;-70
2021/11/22 09:52:07;;;;;;;8.05;5.22;;;;;;;;;;4973761;28;20033;-66
2021/11/22 09:54:32;;;;;;;12.77;5.05;;;;;;;;;;4973695;28;20546;-67
2021/11/22 09:56:57;;;;;;;6.28;3.65;;;;;;;;;;4973973;28;20404;-67
2021/11/22 09:59:23;;;;;;;6.78;4.40;;;;;;;;;;4973715;28;20038;-68
2021/11/22 10:01:52;;;;;;;6.93;3.70;;;;;;;;;;4973703;28;20023;-67
2021/11/22 10:04:19;;;;;;;6.35;3.92;;;;;;;;;;4973591;28;20035;-67
2021/11/22 10:06:50;;;;;;;6.22;4.22;;;;;;;;;;4973297;28;20038;-69
2021/11/22 10:09:30;;;;;;;6.47;4.15;;;;;;;;;;4973736;28;20365;-67
2021/11/22 10:11:57;;;;;;;6.20;3.75;;;;;;;;;;4971121;28;20023;-66
2021/11/22 10:14:33;;;;;;;8.85;4.35;;;;;;;;;;4973742;28;20027;-67
2021/11/22 10:16:58;;;;;;;11.32;4.50;;;;;;;;;;4973843;28;20365;-68
2021/11/22 10:19:23;;;;;;;9.47;5.07;;;;;;;;;;4973636;28;20041;-67
2021/11/22 10:21:49;;;;;;;6.23;4.30;;;;;;;;;;4973362;28;20313;-67
2021/11/22 10:24:14;;;;;;;9.13;4.80;;;;;;;;;;4973265;28;20258;-67
2021/11/22 10:26:39;;;;;;;7.72;5.57;;;;;;;;;;4973184;28;20396;-67
2021/11/22 10:29:05;;;;;;;10.00;6.00;;;;;;;;;;4973550;28;20026;-69
2021/11/22 10:31:31;;;;;;;6.40;4.68;;;;;;;;;;4973260;28;20345;-67
2021/11/22 10:33:57;;;;;;;8.57;5.80;;;;;;;;;;4972204;28;20026;-66
2021/11/22 10:36:23;;;;;;;9.50;6.05;;;;;;;;;;4972564;28;20297;-66
2021/11/22 10:38:53;;;;;;;7.65;5.35;;;;;;;;;;4972826;28;20042;-66
2021/11/22 10:41:20;;;;;;;8.00;5.65;;;;;;;;;;4973167;28;20090;-67
2021/11/22 10:43:51;;;;;;;8.68;6.03;;;;;;;;;;4974097;28;20038;-67
2021/11/22 10:46:16;;;;;;;;;;;;;;;;;;4972040;28;20120;-68
2021/11/22 10:48:47;;;;;;;8.48;5.50;;;;;;;;;;4973057;28;19937;-66
2021/11/22 10:51:15;;;;;;;10.98;5.43;;;;;;;;;;4972653;28;20034;-66
2021/11/22 10:53:48;;;;;;;7.00;5.22;;;;;;;;;;4972714;28;20125;-67
2021/11/22 10:56:15;;;;;;;10.43;5.47;;;;;;;;;;4972886;28;20081;-67
2021/11/22 10:59:12;;;;;;;8.57;5.28;;;;;;;;;;4972738;28;20031;-66
2021/11/22 11:01:53;;;;;;;7.05;4.95;;;;;;;;;;4968134;28;20027;-66
2021/11/22 11:04:18;;;;;;;6.15;4.47;;;;;;;;;;4972575;28;20022;-67
2021/11/22 11:06:51;;;;;;;9.63;5.07;;;;;;;;;;4971040;28;20018;-67
2021/11/22 11:09:27;;;;;;;8.10;4.28;;;;;;;;;;4972220;28;20025;-68
2021/11/22 11:11:54;;;;;;;6.68;4.32;;;;;;;;;;4972669;28;20480;-67
2021/11/22 11:14:20;;;;;;;8.27;4.72;;;;;;;;;;4972436;28;20099;-66
2021/11/22 11:16:45;;;;;;;8.38;5.38;;;;;;;;;;4972248;28;20023;-66
2021/11/22 11:19:12;;;;;;;5.47;4.32;;;;;;;;;;4965229;28;20113;-67
2021/11/22 11:21:42;;;;;;;5.97;4.25;;;;;;;;;;4971436;28;20030;-68
2021/11/22 11:24:08;;;;;;;7.60;4.80;;;;;;;;;;4967868;28;20479;-68
2021/11/22 11:26:34;;;;;;;7.35;3.95;;;;;;;;;;4972127;28;20023;-67
2021/11/22 11:28:59;;;;;;;9.00;3.47;;;;;;;;;;4972223;28;20023;-66
2021/11/22 11:31:25;;;;;;;4.15;3.30;;;;;;;;;;4971283;28;20023;-66
2021/11/22 11:33:52;;;;;;;4.90;3.00;;;;;;;;;;4972335;28;20050;-68
2021/11/22 11:36:26;;;;;;;6.22;3.60;;;;;;;;;;4972187;28;20059;-68
2021/11/22 11:39:12;;;;;;;6.85;3.05;;;;;;;;;;4971989;28;20433;-67
2021/11/22 11:41:53;;;;;;;4.68;2.92;;;;;;;;;;4960241;28;20532;-68
2021/11/22 11:44:43;;;;;;;3.85;3.20;;;;;;;;;;4971392;28;20034;-67
2021/11/22 11:47:11;;;;;;;4.22;3.38;;;;;;;;;;4972153;28;20040;-66
2021/11/22 11:49:36;;;;;;;4.65;3.00;;;;;;;;;;4970841;28;20030;-67
2021/11/22 11:52:21;;;;;;;3.83;3.22;;;;;;;;;;4971814;28;20033;-67
2021/11/22 11:54:46;;;;;;;5.07;3.22;;;;;;;;;;4972119;28;20023;-68
2021/11/22 11:57:11;;;;;;;4.53;3.13;;;;;;;;;;4972178;28;20030;-66
2021/11/22 11:59:41;;;;;;;9.40;3.20;;;;;;;;;;4971837;28;20019;-67
2021/11/22 12:02:09;;;;;;;4.13;3.00;;;;;;;;;;4971154;28;20023;-67
2021/11/22 12:04:47;;;;;;;6.15;3.05;;;;;;;;;;4971421;28;20054;-67
2021/11/22 12:07:21;;;;;;;8.10;3.72;;;;;;;;;;4967424;28;20320;-67
2021/11/22 12:09:46;;;;;;;3.85;2.58;;;;;;;;;;4971540;28;20031;-66
2021/11/22 12:12:12;;;;;;;2.97;1.80;;;;;;;;;;4971428;28;20029;-67
2021/11/22 12:14:47;;;;;;;10.35;1.80;;;;;;;;;;4971371;28;20019;-66
2021/11/22 12:17:32;;;;;;;2.15;1.35;;;;;;;;;;4971523;28;20609;-67
2021/11/22 12:19:57;;;;;;;1.88;1.40;;;;;;;;;;4971269;28;20024;-67
2021/11/22 12:22:25;;;;;;;7.55;1.95;;;;;;;;;;4971454;28;20042;-68
2021/11/22 12:24:50;;;;;;;3.13;1.20;;;;;;;;;;4971609;28;20022;-66
2021/11/22 12:27:27;;;;;;;6.68;1.30;;;;;;;;;;4971644;28;20026;-67
2021/11/22 12:29:55;;;;;;;1.40;1.27;;;;;;;;;;4965112;28;20457;-66
2021/11/22 12:32:29;;;;;;;1.15;1.00;;;;;;;;;;4965113;28;20035;-67
2021/11/22 12:34:56;;;;;;;3.28;1.50;;;;;;;;;;4969855;28;20033;-67
2021/11/22 12:37:29;;;;;;;7.47;1.25;;;;;;;;;;4971107;28;20062;-69
2021/11/22 12:40:06;;;;;;;3.25;1.05;;;;;;;;;;4970954;28;20496;-67
2021/11/22 12:42:43;;;;;;;1.92;1.38;;;;;;;;;;4969672;28;20114;-67
2021/11/22 12:45:09;;;;;;;3.00;1.48;;;;;;;;;;4972381;28;20023;-67
2021/11/22 12:47:34;;;;;;;1.90;1.33;;;;;;;;;;4974884;28;20106;-66
2021/11/22 12:50:10;;;;;;;2.90;1.30;;;;;;;;;;4975543;28;20034;-69
2021/11/22 12:52:36;;;;;;;1.65;1.17;;;;;;;;;;4975679;28;20081;-67
2021/11/22 12:55:07;;;;;;;5.97;1.13;;;;;;;;;;4975134;28;20029;-67
2021/11/22 12:57:34;;;;;;;2.58;0.98;;;;;;;;;;4974801;28;20027;-67
2021/11/22 13:00:05;;;;;;;8.13;0.98;;;;;;;;;;4974479;28;20427;-67
2021/11/22 13:02:49;;;;;;;1.77;1.10;;;;;;;;;;4975145;28;20019;-67
2021/11/22 13:05:33;;;;;;;3.50;0.82;;;;;;;;;;4975169;28;20031;-67
2021/11/22 13:07:58;;;;;;;3.67;0.98;;;;;;;;;;4974386;28;20027;-67
2021/11/22 13:10:53;;;;;;;5.97;1.85;;;;;;;;;;4974514;28;20029;-67
2021/11/22 13:13:30;;;;;;;8.00;1.20;;;;;;;;;;4970356;28;20377;-66
2021/11/22 13:15:59;;;;;;;5.10;1.15;;;;;;;;;;4974504;28;20018;-66
2021/11/22 13:18:29;;;;;;;1.77;1.10;;;;;;;;;;4975106;28;20019;-67
2021/11/22 13:20:56;;;;;;;1.10;0.82;;;;;;;;;;4974063;28;20047;-67
2021/11/22 13:23:26;;;;;;;1.98;1.02;;;;;;;;;;4974696;28;20118;-66
2021/11/22 13:25:52;;;;;;;3.60;1.23;;;;;;;;;;4974377;28;20038;-67
2021/11/22 13:28:21;;;;;;;3.70;1.35;;;;;;;;;;4974527;28;20023;-67
2021/11/22 13:30:47;;;;;;;2.13;1.30;;;;;;;;;;4973479;28;20373;-66
2021/11/22 13:33:13;;;;;;;2.33;1.40;;;;;;;;;;4971977;28;20038;-66
2021/11/22 13:35:38;;;;;;;5.93;1.60;;;;;;;;;;4974355;28;20467;-66
2021/11/22 13:38:14;;;;;;;1.42;1.20;;;;;;;;;;4974205;28;20029;-66
2021/11/22 13:40:40;;;;;;;5.43;1.15;;;;;;;;;;4960373;28;20027;-67
2021/11/22 13:43:07;;;;;;;3.90;2.42;;;;;;;;;;4960919;28;20027;-67
2021/11/22 13:45:33;;;;;;;6.97;1.73;;;;;;;;;;4973685;28;20046;-66
2021/11/22 13:47:58;;;;;;;3.63;1.88;;;;;;;;;;4971838;28;20023;-66
2021/11/22 13:50:25;;;;;;;3.90;1.58;;;;;;;;;;4973874;28;20022;-66
2021/11/22 13:52:50;;;;;;;2.58;1.30;;;;;;;;;;4973611;28;20103;-67
2021/11/22 13:55:15;;;;;;;4.45;1.60;;;;;;;;;;4972609;28;20453;-67
2021/11/22 13:57:40;;;;;;;4.38;2.17;;;;;;;;;;4973510;28;20034;-66
2021/11/22 14:00:08;;;;;;;5.30;1.88;;;;;;;;;;4973527;28;20022;-67
2021/11/22 14:02:34;;;;;;;3.53;1.85;;;;;;;;;;4973652;28;20059;-67
2021/11/22 14:05:00;;;;;;;3.35;1.73;;;;;;;;;;4973719;28;20073;-66
2021/11/22 14:07:39;;;;;;;3.40;1.88;;;;;;;;;;4973967;28;20042;-66
2021/11/22 14:10:05;;;;;;;3.13;1.52;;;;;;;;;;4973649;28;20534;-65
2021/11/22 14:12:31;;;;;;;2.85;1.90;;;;;;;;;;4973505;28;20023;-66
2021/11/22 14:14:57;;;;;;;3.38;1.25;;;;;;;;;;4968815;28;20019;-66
2021/11/22 14:17:22;;;;;;;3.08;2.08;;;;;;;;;;4973716;28;20022;-66
2021/11/22 14:20:07;;;;;;;4.28;1.77;;;;;;;;;;4971925;28;20108;-66
2021/11/22 14:22:37;;;;;;;5.70;1.73;;;;;;;;;;4972013;28;20387;-66
2021/11/22 14:25:02;;;;;;;5.22;1.83;;;;;;;;;;4973054;28;20117;-66
2021/11/22 14:27:27;;;;;;;3.40;1.90;;;;;;;;;;4971656;28;20106;-66
2021/11/22 14:29:57;;;;;;;2.75;1.70;;;;;;;;;;4972275;28;20023;-66